^^
Meteo Knjazevac Station Historical Data
Daily Summary for May 25, 2021 Units:  English    Metric   Both
Daily Weekly Monthly Yearly Custom
  High: Low: Average:
Temperature: 51.8 °F 47 °F 48.9 °F
Dew Point: 46.7 °F 43.7 °F 45 °F
Humidity: 90% 81% 86%
Wind Speed: 3mph 0mph 0.9mph
Wind Gust: 7mph - -
Wind- - SW
Pressure: 30.20 in 30.13 in -
Precipitation: 0.00 in    
Historical Graphs
 
 
Tabular Data for May 25, 2021
Time Temperature Dew Point Pressure Wind Wind Speed Wind Gust Humidity Rainfall Rate (Hourly) solar Conditions
00:00 51.8 °F 46.2 °F 30.13 in Calm   2 mph 81% 0.00 in 0 W/m2
00:10 51.4 °F 45.8 °F 30.13 in Calm     81% 0.00 in 0 W/m2
00:20 51.3 °F 46.3 °F 30.13 in North 1 mph 2 mph 83% 0.00 in 0 W/m2
00:30 50.9 °F 45.9 °F 30.13 in Calm   2 mph 83% 0.00 in 0 W/m2
00:40 50.4 °F 45.4 °F 30.14 in Calm   2 mph 83% 0.00 in 0 W/m2
00:50 49.7 °F 44.8 °F 30.14 in WNW 2 mph 3 mph 83% 0.00 in 0 W/m2
01:00 49.5 °F 44.8 °F 30.14 in NW 2 mph 5 mph 84% 0.00 in 0 W/m2
01:10 49.6 °F 45.3 °F 30.14 in Calm   2 mph 85% 0.00 in 0 W/m2
01:20 49.5 °F 44.8 °F 30.14 in Calm   2 mph 84% 0.00 in 0 W/m2
01:30 49.3 °F 45 °F 30.14 in Calm   2 mph 85% 0.00 in 0 W/m2
01:40 48.9 °F 44.6 °F 30.14 in NNW 1 mph 2 mph 85% 0.00 in 0 W/m2
01:50 48.9 °F 44.9 °F 30.14 in NNE 1 mph 2 mph 86% 0.00 in 0 W/m2
02:00 49.1 °F 45.1 °F 30.15 in NE 2 mph 5 mph 86% 0.00 in 0 W/m2
02:10 49.8 °F 46.1 °F 30.14 in Calm   7 mph 87% 0.00 in 0 W/m2
02:20 49.6 °F 45.3 °F 30.15 in Calm   6 mph 85% 0.00 in 0 W/m2
02:30 49 °F 44.4 °F 30.15 in North 1 mph 3 mph 84% 0.00 in 0 W/m2
02:40 48.9 °F 44.9 °F 30.15 in NNE 1 mph 2 mph 86% 0.00 in 0 W/m2
02:50 48.7 °F 44.7 °F 30.15 in NNW 1 mph 2 mph 86% 0.00 in 0 W/m2
03:00 48.6 °F 44.6 °F 30.15 in NW 1 mph 4 mph 86% 0.00 in 0 W/m2
03:10 48.4 °F 44.4 °F 30.16 in Calm   2 mph 86% 0.00 in 0 W/m2
03:20 48 °F 44.6 °F 30.16 in NNW 1 mph 2 mph 88% 0.00 in 0 W/m2
03:30 47.8 °F 43.9 °F 30.16 in WNW 1 mph 2 mph 86% 0.00 in 0 W/m2
03:40 47.6 °F 44.2 °F 30.16 in NNW 1 mph 3 mph 88% 0.00 in 0 W/m2
03:50 47.5 °F 44.1 °F 30.16 in NNW 2 mph 3 mph 88% 0.00 in 0 W/m2
04:00 47.5 °F 44.4 °F 30.17 in NNW 1 mph 4 mph 89% 0.00 in 0 W/m2
04:10 47.5 °F 44.4 °F 30.17 in North 2 mph 4 mph 89% 0.00 in 0 W/m2
04:20 47.7 °F 44.9 °F 30.17 in NE 2 mph 4 mph 90% 0.00 in 0 W/m2
04:30 48.3 °F 45.5 °F 30.17 in NE 1 mph 3 mph 90% 0.00 in 0 W/m2
04:40 48.6 °F 45.8 °F 30.17 in NNE 1 mph 3 mph 90% 0.00 in 0 W/m2
04:50 48.9 °F 46.1 °F 30.18 in ENE 3 mph 6 mph 90% 0.00 in 0 W/m2
05:00 49.8 °F 46.7 °F 30.18 in East 1 mph 6 mph 89% 0.00 in 0 W/m2
05:10 49.8 °F 46.3 °F 30.18 in NE 2 mph 4 mph 88% 0.00 in 0 W/m2
05:20 49.3 °F 45.3 °F 30.19 in NNW 1 mph 4 mph 86% 0.00 in 0 W/m2
05:30 48.7 °F 44.7 °F 30.19 in WNW 1 mph 3 mph 86% 0.00 in 0 W/m2
05:40 47.9 °F 43.9 °F 30.19 in Calm   3 mph 86% 0.00 in 0 W/m2
05:50 47.5 °F 44.1 °F 30.19 in NW 1 mph 3 mph 88% 0.00 in 0 W/m2
06:00 47.1 °F 43.7 °F 30.19 in WNW 1 mph 4 mph 88% 0.00 in 0 W/m2
06:10 47 °F 43.9 °F 30.19 in Calm   2 mph 89% 0.00 in 0 W/m2
06:20 47.1 °F 44.3 °F 30.20 in Calm   3 mph 90% 0.00 in 0 W/m2
06:30 47.1 °F 44.3 °F 30.20 in Calm   2 mph 90% 0.00 in 8 W/m2
Knjazevac, Serbia
Compliments of Weather Underground - 2 mb